Time;durP1;ratioP1;P1;durP2;ratioP2;P2;SDS_P1;SDS_P2;PMS_P1;PMS_P2;Temp;Humidity;BMP_temperature;BMP_pressure;BME280_temperature;BME280_humidity;BME280_pressure;Samples;Min_cycle;Max_cycle;Signal;HPM_P1;HPM_P2
2022/06/01 00:01:15;;;;;;;;;;;;;;;9.34;100.00;100700.28;5072727;28;19939;-83
2022/06/01 00:03:49;;;;;;;;;;;;;;;9.41;100.00;100691.09;5087674;28;19935;-84
2022/06/01 00:06:18;;;;;;;;;;;;;;;9.40;100.00;100692.16;5072223;28;19931;-83
2022/06/01 00:08:46;;;;;;;;;;;;;;;9.32;100.00;100691.63;5072664;28;19925;-84
2022/06/01 00:11:14;;;;;;;;;;;;;;;9.35;100.00;100687.56;5068408;28;20274;-84
2022/06/01 00:13:47;;;;;;;;;;;;;;;9.32;100.00;100686.19;5075941;28;19931;-83
2022/06/01 00:16:19;;;;;;;;;;;;;;;9.32;100.00;100686.19;5081575;28;19924;-83
2022/06/01 00:18:47;;;;;;;;;;;;;;;9.27;100.00;100672.59;5094451;28;20283;-84
2022/06/01 00:21:22;;;;;;;;;;;;;;;9.16;100.00;100684.56;5085449;28;19924;-83
2022/06/01 00:23:54;;;;;;;;;;;;;;;9.21;100.00;100683.72;5066636;28;19932;-83
2022/06/01 00:26:22;;;;;;;;;;;;;;;9.09;100.00;100678.56;5074928;28;20416;-83
2022/06/01 00:28:55;;;;;;;;;;;;;;;9.06;100.00;100677.22;5072688;28;19935;-83
2022/06/01 00:31:30;;;;;;;;;;;;;;;9.01;100.00;100678.00;5066388;28;20328;-83
2022/06/01 00:34:03;;;;;;;;;;;;;;;9.07;100.00;100683.44;5070538;28;19931;-84
2022/06/01 00:36:32;;;;;;;;;;;;;;;9.12;100.00;100675.31;5073970;28;20301;-84
2022/06/01 00:39:00;;;;;;;;;;;;;;;9.13;100.00;100675.03;5073338;28;20308;-84
2022/06/01 00:41:33;;;;;;;;;;;;;;;9.20;100.00;100677.50;5073092;28;19925;-83
2022/06/01 00:44:01;;;;;;;;;;;;;;;9.18;100.00;100674.22;5065533;28;19925;-83
2022/06/01 00:46:34;;;;;;;;;;;;;;;9.25;100.00;100672.03;5077427;28;19928;-83
2022/06/01 00:49:12;;;;;;;;;;;;;;;9.12;100.00;100673.41;5080099;28;19931;-83
2022/06/01 00:51:41;;;;;;;;;;;;;;;9.03;100.00;100675.00;5071041;28;19924;-83
2022/06/01 00:54:14;;;;;;;;;;;;;;;9.02;100.00;100676.91;5064348;28;20312;-83
2022/06/01 00:56:45;;;;;;;;;;;;;;;8.90;100.00;100675.56;5069380;28;20396;-83
2022/06/01 00:59:15;;;;;;;;;;;;;;;8.88;100.00;100669.56;5076082;28;19931;-83
2022/06/01 01:01:49;;;;;;;;;;;;;;;8.89;100.00;100676.63;5076024;28;19925;-83
2022/06/01 01:04:22;;;;;;;;;;;;;;;8.93;100.00;100673.09;5082816;28;19924;-83
2022/06/01 01:06:57;;;;;;;;;;;;;;;8.98;100.00;100675.03;5083208;28;19924;-83
2022/06/01 01:09:25;;;;;;;;;;;;;;;8.92;100.00;100673.38;5063647;28;19924;-83
2022/06/01 01:11:59;;;;;;;;;;;;;;;8.90;100.00;100673.66;5070312;28;19933;-83
2022/06/01 01:14:28;;;;;;;;;;;;;;;8.97;100.00;100666.06;5059984;28;19935;-83
2022/06/01 01:16:59;;;;;;;;;;;;;;;8.88;100.00;100664.97;5073386;28;20285;-84
2022/06/01 01:19:33;;;;;;;;;;;;;;;8.92;100.00;100662.50;5083151;28;19939;-84
2022/06/01 01:22:10;;;;;;;;;;;;;;;8.92;100.00;100660.63;5075073;28;19931;-84
2022/06/01 01:24:48;;;;;;;;;;;;;;;8.96;100.00;100664.44;5072311;28;19924;-84
2022/06/01 01:27:23;;;;;;;;;;;;;;;8.98;100.00;100656.03;5077504;28;19932;-83
2022/06/01 01:29:51;;;;;;;;;;;;;;;8.97;100.00;100649.75;5069403;28;20396;-83
2022/06/01 01:32:19;;;;;;;;;;;;;;;8.95;100.00;100656.53;5086922;28;19924;-83
2022/06/01 01:34:52;;;;;;;;;;;;;;;8.89;100.00;100658.44;5071839;28;19924;-83
2022/06/01 01:37:28;;;;;;;;;;;;;;;8.88;100.00;100653.28;5067815;28;19932;-83
2022/06/01 01:39:56;;;;;;;;;;;;;;;8.79;100.00;100650.28;5076422;28;19925;-83
2022/06/01 01:42:25;;;;;;;;;;;;;;;8.76;100.00;100648.13;5063417;28;19924;-83
2022/06/01 01:45:02;;;;;;;;;;;;;;;8.74;100.00;100648.41;5073468;28;19928;-83
2022/06/01 01:47:36;;;;;;;;;;;;;;;8.73;100.00;100640.50;5065335;28;19924;-83
2022/06/01 01:50:10;;;;;;;;;;;;;;;8.68;100.00;100642.13;5063927;28;20392;-83
2022/06/01 01:52:44;;;;;;;;;;;;;;;8.72;100.00;100647.84;5070120;28;19925;-82
2022/06/01 01:55:20;;;;;;;;;;;;;;;8.71;100.00;100638.06;5070805;28;19924;-83
2022/06/01 01:57:53;;;;;;;;;;;;;;;8.70;100.00;100641.88;5074714;28;19935;-84
2022/06/01 02:00:27;;;;;;;;;;;;;;;8.71;100.00;100638.06;5063023;28;19932;-83
2022/06/01 02:03:05;;;;;;;;;;;;;;;8.70;100.00;100639.16;5078124;28;19925;-83
2022/06/01 02:08:26;;;;;;;;;;;;;;;8.66;100.00;100630.72;5062389;28;19925;-83
2022/06/01 02:13:56;;;;;;;;;;;;;;;8.65;100.00;100631.00;5069470;28;19925;-83
2022/06/01 02:16:31;;;;;;;;;;;;;;;8.67;100.00;100626.09;5075162;28;19933;-83
2022/06/01 02:19:01;;;;;;;;;;;;;;;8.62;100.00;100626.94;5079524;28;19925;-83
2022/06/01 02:21:29;;;;;;;;;;;;;;;8.63;100.00;100636.69;5080775;28;19932;-83
2022/06/01 02:24:00;;;;;;;;;;;;;;;8.66;100.00;100624.50;5073655;28;19929;-83
2022/06/01 02:26:33;;;;;;;;;;;;;;;8.67;100.00;100624.22;5066152;28;19932;-83
2022/06/01 02:29:07;;;;;;;;;;;;;;;8.69;100.00;100621.25;5077665;28;19947;-83
2022/06/01 02:31:41;;;;;;;;;;;;;;;8.74;100.00;100632.13;5068458;28;19931;-83
2022/06/01 02:34:14;;;;;;;;;;;;;;;8.73;100.00;100616.06;5082994;28;19924;-83
2022/06/01 02:36:48;;;;;;;;;;;;;;;8.75;100.00;100616.63;5066476;28;19943;-83
2022/06/01 02:39:21;;;;;;;;;;;;;;;8.76;100.00;100610.94;5076410;28;19924;-83
2022/06/01 02:44:53;;;;;;;;;;;;;;;8.71;100.00;100613.63;5082104;28;19931;-83
2022/06/01 02:47:21;;;;;;;;;;;;;;;8.75;100.00;100624.78;5075791;28;20285;-83
2022/06/01 02:49:54;;;;;;;;;;;;;;;8.81;100.00;100618.25;5068207;28;19947;-83
2022/06/01 02:52:28;;;;;;;;;;;;;;;8.84;100.00;100617.75;5082682;28;19925;-83
2022/06/01 02:54:55;;;;;;;;;;;;;;;8.84;100.00;100621.25;5074267;28;19924;-83
2022/06/01 02:57:24;;;;;;;;;;;;;;;8.91;100.00;100618.28;5073514;28;19936;-83
2022/06/01 02:59:58;;;;;;;;;;;;;;;8.97;100.00;100614.47;5076075;28;19928;-83
2022/06/01 03:02:31;;;;;;;;;;;;;;;9.04;100.00;100624.28;5075067;28;20399;-83
2022/06/01 03:05:04;;;;;;;;;;;;;;;9.07;100.00;100604.72;5070358;28;19928;-83
2022/06/01 03:07:32;;;;;;;;;;;;;;;9.12;100.00;100613.66;5081021;28;20283;-83
2022/06/01 03:10:00;;;;;;;;;;;;;;;9.16;100.00;100611.25;5063658;28;19924;-83
2022/06/01 03:12:33;;;;;;;;;;;;;;;9.14;100.00;100610.69;5067072;28;19925;-83
2022/06/01 03:15:09;;;;;;;;;;;;;;;9.14;100.00;100602.53;5068726;28;19924;-83
2022/06/01 03:17:37;;;;;;;;;;;;;;;9.17;100.00;100608.25;5086011;28;19932;-83
2022/06/01 03:20:11;;;;;;;;;;;;;;;9.05;100.00;100602.28;5080210;28;19928;-83
2022/06/01 03:22:41;;;;;;;;;;;;;;;9.07;100.00;100605.53;5073982;28;19929;-83
2022/06/01 03:25:10;;;;;;;;;;;;;;;9.10;100.00;100609.59;5066693;28;19925;-83
2022/06/01 03:27:43;;;;;;;;;;;;;;;9.11;100.00;100609.31;5066902;28;19935;-83
2022/06/01 03:30:15;;;;;;;;;;;;;;;9.08;100.00;100606.34;5069746;28;19936;-83
2022/06/01 03:32:44;;;;;;;;;;;;;;;9.11;100.00;100598.47;5082410;28;19924;-83
2022/06/01 03:35:12;;;;;;;;;;;;;;;9.07;100.00;100594.66;5073664;28;19925;-85
2022/06/01 03:37:45;;;;;;;;;;;;;;;9.07;100.00;100600.09;5067691;28;19951;-85
2022/06/01 03:40:14;;;;;;;;;;;;;;;9.07;100.00;100602.00;5070649;28;19925;-84
2022/06/01 03:42:47;;;;;;;;;;;;;;;9.07;100.00;100596.56;5055685;28;20385;-85
2022/06/01 03:48:12;;;;;;;;;;;;;;;8.93;100.00;100591.69;5080654;28;19925;-84
2022/06/01 03:50:40;;;;;;;;;;;;;;;8.98;100.00;100597.13;5065742;28;19932;-84
2022/06/01 03:53:14;;;;;;;;;;;;;;;8.99;100.00;100598.75;5082875;28;20264;-84
2022/06/01 03:55:42;;;;;;;;;;;;;;;8.98;100.00;100601.75;5069377;28;19940;-84
2022/06/01 03:58:16;;;;;;;;;;;;;;;8.86;100.00;100599.28;5080888;28;19932;-84
2022/06/01 04:00:45;;;;;;;;;;;;;;;8.94;100.00;100598.75;5075036;28;19931;-84
2022/06/01 04:03:18;;;;;;;;;;;;;;;8.95;100.00;100600.38;5072947;28;20485;-85
2022/06/01 04:05:51;;;;;;;;;;;;;;;8.93;100.00;100599.00;5077758;28;19925;-84
2022/06/01 04:08:24;;;;;;;;;;;;;;;8.93;100.00;100597.09;5064224;28;19932;-85
2022/06/01 04:10:57;;;;;;;;;;;;;;;8.98;100.00;100605.25;5074753;28;19929;-84
2022/06/01 04:13:30;;;;;;;;;;;;;;;8.97;100.00;100605.53;5069530;28;20329;-85
2022/06/01 04:16:05;;;;;;;;;;;;;;;8.93;100.00;100599.81;5055409;28;19924;-83
2022/06/01 04:18:32;;;;;;;;;;;;;;;8.82;100.00;100606.34;5068084;28;19924;-84
2022/06/01 04:21:05;;;;;;;;;;;;;;;8.90;100.00;100610.41;5082945;28;19925;-84
2022/06/01 04:23:38;;;;;;;;;;;;;;;8.86;100.00;100602.00;5080363;28;19931;-84
2022/06/01 04:26:16;;;;;;;;;;;;;;;8.90;100.00;100603.09;5076191;28;19931;-84
2022/06/01 04:28:44;;;;;;;;;;;;;;;8.89;100.00;100601.44;5077797;28;19932;-84
2022/06/01 04:31:13;;;;;;;;;;;;;;;8.93;100.00;100605.25;5081451;28;19924;-84
2022/06/01 04:33:46;;;;;;;;;;;;;;;9.01;100.00;100614.75;5073383;28;19924;-84
2022/06/01 04:36:14;;;;;;;;;;;;;;;9.06;100.00;100612.06;5072507;28;19924;-85
2022/06/01 04:38:47;;;;;;;;;;;;;;;9.19;100.00;100614.22;5074580;28;19935;-84
2022/06/01 04:41:20;;;;;;;;;;;;;;;9.28;100.00;100606.34;5066323;28;20172;-85
2022/06/01 04:43:47;;;;;;;;;;;;;;;9.33;100.00;100613.66;5080127;28;19947;-84
2022/06/01 04:46:22;;;;;;;;;;;;;;;9.38;100.00;100615.56;5073501;28;19929;-84
2022/06/01 04:48:54;;;;;;;;;;;;;;;9.35;100.00;100611.50;5057866;28;19924;-87
2022/06/01 04:51:22;;;;;;;;;;;;;;;9.51;100.00;100609.56;5072143;28;19949;-85
2022/06/01 04:53:50;;;;;;;;;;;;;;;9.53;100.00;100608.22;5065649;28;20385;-83
2022/06/01 04:56:18;;;;;;;;;;;;;;;9.57;100.00;100607.66;5082493;28;19932;-84
2022/06/01 04:58:51;;;;;;;;;;;;;;;9.74;100.00;100608.16;5068391;28;19933;-84
2022/06/01 05:01:19;;;;;;;;;;;;;;;9.84;100.00;100612.75;5072417;28;19936;-83
2022/06/01 05:03:54;;;;;;;;;;;;;;;10.02;100.00;100611.34;5078815;28;19995;-87
2022/06/01 05:06:21;;;;;;;;;;;;;;;10.45;100.00;100606.25;5073654;28;19925;-84
2022/06/01 05:08:49;;;;;;;;;;;;;;;10.29;100.00;100610.97;5075669;28;19928;-85
2022/06/01 05:11:19;;;;;;;;;;;;;;;10.16;100.00;100611.56;5067117;28;19929;-84
2022/06/01 05:13:52;;;;;;;;;;;;;;;10.19;100.00;100611.81;5070867;28;19947;-83
2022/06/01 05:16:20;;;;;;;;;;;;;;;10.24;100.00;100605.53;5079578;28;19939;-85
2022/06/01 05:18:55;;;;;;;;;;;;;;;10.26;100.00;100610.69;5068274;28;20385;-84
2022/06/01 05:21:28;;;;;;;;;;;;;;;10.29;100.00;100604.69;5071615;28;19929;-84
2022/06/01 05:24:00;;;;;;;;;;;;;;;10.46;100.00;100598.94;5071752;28;19928;-84
2022/06/01 05:26:28;;;;;;;;;;;;;;;10.46;100.00;100601.66;5068343;28;20311;-84
2022/06/01 05:29:01;;;;;;;;;;;;;;;10.47;100.00;100606.00;5068084;28;19939;-83
2022/06/01 05:31:29;;;;;;;;;;;;;;;10.73;100.00;100612.09;5076585;28;19924;-84
2022/06/01 05:33:58;;;;;;;;;;;;;;;10.89;100.00;100615.50;5069113;28;20423;-84
2022/06/01 05:36:31;;;;;;;;;;;;;;;11.05;100.00;100608.06;5077775;28;19937;-85
2022/06/01 05:39:04;;;;;;;;;;;;;;;11.98;100.00;100607.97;5071600;28;19935;-83
2022/06/01 05:41:37;;;;;;;;;;;;;;;12.47;100.00;100603.25;5077546;28;19939;-83
2022/06/01 05:44:10;;;;;;;;;;;;;;;12.27;100.00;100601.63;5064670;28;19932;-85
2022/06/01 05:46:43;;;;;;;;;;;;;;;11.90;100.00;100609.41;5067714;28;19995;-86
2022/06/01 05:49:18;;;;;;;;;;;;;;;11.70;100.00;100604.97;5067584;28;19932;-84
2022/06/01 05:51:50;;;;;;;;;;;;;;;11.85;100.00;100598.56;5060988;28;19932;-84
2022/06/01 05:54:24;;;;;;;;;;;;;;;12.13;100.00;100609.72;5067799;28;19948;-83
2022/06/01 05:56:56;;;;;;;;;;;;;;;12.16;100.00;100600.13;5068199;28;19947;-84
2022/06/01 05:59:29;;;;;;;;;;;;;;;12.15;100.00;100614.88;5072246;28;19925;-84
2022/06/01 06:02:02;;;;;;;;;;;;;;;12.16;100.00;100620.03;5072798;28;20399;-84
2022/06/01 06:04:37;;;;;;;;;;;;;;;12.04;100.00;100631.38;5070833;28;19924;-83
2022/06/01 06:07:09;;;;;;;;;;;;;;;11.88;100.00;100638.88;5042564;28;19932;-83
2022/06/01 06:09:37;;;;;;;;;;;;;;;11.86;100.00;100648.44;5041237;28;19932;-84
2022/06/01 06:12:05;;;;;;;;;;;;;;;11.78;100.00;100651.78;5042931;28;21811;-83
2022/06/01 06:14:38;;;;;;;;;;;;;;;11.51;100.00;100648.50;5054289;28;19932;-84
2022/06/01 06:17:11;;;;;;;;;;;;;;;11.49;100.00;100653.44;5046312;28;19937;-84
2022/06/01 06:19:41;;;;;;;;;;;;;;;11.32;100.00;100653.03;5061714;28;19935;-85
2022/06/01 06:22:09;;;;;;;;;;;;;;;11.24;100.00;100649.00;5053957;28;19933;-85
2022/06/01 06:24:37;;;;;;;;;;;;;;;11.12;100.00;100654.84;5072863;28;19928;-83
2022/06/01 06:27:10;;;;;;;;;;;;;;;11.04;100.00;100658.97;5057484;28;19932;-89
2022/06/01 06:29:43;;;;;;;;;;;;;;;11.00;100.00;100663.34;5043581;28;19944;-84
2022/06/01 06:32:16;;;;;;;;;;;;;;;10.77;100.00;100667.59;5045274;28;19932;-82
2022/06/01 06:34:50;;;;;;;;;;;;;;;10.67;100.00;100671.19;5037662;28;19983;-88
2022/06/01 06:37:23;;;;;;;;;;;;;;;10.68;100.00;100682.91;5042409;28;19925;-87
2022/06/01 06:39:56;;;;;;;;;;;;;;;10.72;100.00;100682.03;5046744;28;21677;-88
2022/06/01 06:42:29;;;;;;;;;;;;;;;10.64;100.00;100677.19;5060037;28;19932;-86
2022/06/01 06:44:56;;;;;;;;;;;;;;;10.55;100.00;100687.06;5048089;28;20590;-85
2022/06/01 06:47:41;;;;;;;;;;;;;;;10.64;100.00;100688.06;5057957;28;19939;-85
2022/06/01 06:50:17;;;;;;;;;;;;;;;10.63;100.00;100691.06;5044457;28;19932;-86
2022/06/01 06:52:49;;;;;;;;;;;;;;;10.48;100.00;100698.22;5073873;28;19925;-86
2022/06/01 06:55:22;;;;;;;;;;;;;;;10.50;100.00;100708.84;5045147;28;19928;-89
2022/06/01 06:57:50;;;;;;;;;;;;;;;10.57;100.00;100703.09;5044036;28;19932;-87
2022/06/01 07:00:23;;;;;;;;;;;;;;;10.51;100.00;100707.75;5045353;28;19943;-88
2022/06/01 07:02:56;;;;;;;;;;;;;;;10.43;100.00;100711.84;5063844;28;19933;-88
2022/06/01 07:08:16;;;;;;;;;;;;;;;10.25;100.00;100717.84;5044290;28;19931;-88
2022/06/01 07:10:44;;;;;;;;;;;;;;;10.13;100.00;100718.97;5063093;28;19933;-86
2022/06/01 07:13:17;;;;;;;;;;;;;;;10.13;100.00;100718.97;5044351;28;19932;-87
2022/06/01 07:15:59;;;;;;;;;;;;;;;10.09;100.00;100719.81;5044402;28;19949;-87
2022/06/01 07:18:32;;;;;;;;;;;;;;;10.03;100.00;100725.25;5044655;28;20297;-87
2022/06/01 07:21:08;;;;;;;;;;;;;;;9.85;100.00;100725.84;5042144;28;19933;-86
2022/06/01 07:23:41;;;;;;;;;;;;;;;9.78;100.00;100725.31;5046601;28;19940;-89
2022/06/01 07:26:11;;;;;;;;;;;;;;;9.64;100.00;100716.88;5041454;28;19932;-89
2022/06/01 07:28:39;;;;;;;;;;;;;;;9.69;100.00;100712.28;5068407;28;21566;-92
2022/06/01 07:31:07;;;;;;;;;;;;;;;9.71;100.00;100690.25;5068548;28;19933;-91
2022/06/01 07:33:36;;;;;;;;;;;;;;;9.57;100.00;100690.00;5067532;28;19932;-88
2022/06/01 07:36:12;;;;;;;;;;;;;;;9.52;100.00;100681.84;5046338;28;20658;-88
2022/06/01 07:44:15;;;;;;;;;;;;;;;9.34;100.00;100659.56;5061010;28;19936;-90
2022/06/01 07:46:43;;;;;;;;;;;;;;;9.38;100.00;100665.28;5062975;28;19932;-91
2022/06/01 07:49:11;;;;;;;;;;;;;;;9.25;100.00;100644.88;5060797;28;19932;-88
2022/06/01 07:51:40;;;;;;;;;;;;;;;9.40;100.00;100635.13;5050167;28;19932;-89
2022/06/01 07:54:08;;;;;;;;;;;;;;;9.54;100.00;100636.19;5048648;28;19951;-86
2022/06/01 07:56:41;;;;;;;;;;;;;;;9.57;100.00;100632.94;5041976;28;20620;-87
2022/06/01 07:59:10;;;;;;;;;;;;;;;9.53;100.00;100624.50;5049347;28;19932;-87
2022/06/01 08:01:43;;;;;;;;;;;;;;;9.69;100.00;100628.03;5049699;28;19932;-86
2022/06/01 08:04:17;;;;;;;;;;;;;;;9.85;100.00;100633.41;5050613;28;20727;-89
2022/06/01 08:06:51;;;;;;;;;;;;;;;9.81;100.00;100629.63;5044057;28;19940;-88
2022/06/01 08:09:24;;;;;;;;;;;;;;;10.00;100.00;100643.44;5044365;28;19931;-88
2022/06/01 08:14:43;;;;;;;;;;;;;;;10.24;100.00;100653.69;5063198;28;19940;-87
2022/06/01 08:17:16;;;;;;;;;;;;;;;10.33;100.00;100649.28;5049130;28;20382;-88
2022/06/01 08:19:48;;;;;;;;;;;;;;;10.62;100.00;100656.78;5046844;28;19935;-87
2022/06/01 08:22:18;;;;;;;;;;;;;;;10.80;100.00;100658.03;5047257;28;20517;-91
2022/06/01 08:24:51;;;;;;;;;;;;;;;10.85;100.00;100658.84;5045626;28;19932;-87
2022/06/01 08:27:19;;;;;;;;;;;;;;;10.80;100.00;100658.88;5060286;28;19932;-85
2022/06/01 08:29:52;;;;;;;;;;;;;;;11.06;100.00;100653.22;5046351;28;19925;-88
2022/06/01 08:32:19;;;;;;;;;;;;;;;10.94;100.00;100650.06;5063329;28;19940;-88
2022/06/01 08:34:52;;;;;;;;;;;;;;;11.01;100.00;100656.81;5047925;28;19933;-87
2022/06/01 08:37:27;;;;;;;;;;;;;;;10.92;100.00;100653.06;5040090;28;19939;-88
2022/06/01 08:39:54;;;;;;;;;;;;;;;10.97;100.00;100649.50;5042146;28;19928;-88
2022/06/01 08:42:28;;;;;;;;;;;;;;;11.08;100.00;100647.53;5041394;28;19947;-86
2022/06/01 08:44:58;;;;;;;;;;;;;;;11.08;100.00;100655.69;5040507;28;19940;-84
2022/06/01 08:47:32;;;;;;;;;;;;;;;11.29;100.00;100659.06;5036536;28;19933;-86
2022/06/01 08:50:08;;;;;;;;;;;;;;;11.30;100.00;100650.59;5036914;28;20664;-86
2022/06/01 08:52:43;;;;;;;;;;;;;;;11.19;100.00;100651.78;5037490;28;19940;-86
2022/06/01 08:55:17;;;;;;;;;;;;;;;11.01;100.00;100658.75;5039797;28;19939;-87
2022/06/01 08:57:48;;;;;;;;;;;;;;;11.02;100.00;100665.78;5040361;28;19929;-86
2022/06/01 09:00:21;;;;;;;;;;;;;;;11.11;100.00;100672.25;5045174;28;19933;-84
2022/06/01 09:02:55;;;;;;;;;;;;;;;11.11;100.00;100671.47;5059450;28;19940;-85
2022/06/01 09:05:28;;;;;;;;;;;;;;;11.18;100.00;100682.84;5035126;28;19932;-85
2022/06/01 09:08:07;;;;;;;;;;;;;;;11.13;100.00;100688.31;5034269;28;19932;-84
2022/06/01 09:10:51;;;;;;;;;;;;;;;10.96;100.00;100694.16;5038831;28;19939;-85
2022/06/01 09:13:26;;;;;;;;;;;;;;;10.83;100.00;100688.25;5061580;28;19939;-86
2022/06/01 09:16:01;;;;;;;;;;;;;;;10.81;100.00;100690.44;5049718;28;19940;-84
2022/06/01 09:18:37;;;;;;;;;;;;;;;10.74;100.00;100694.56;5062663;28;19932;-86
2022/06/01 09:24:13;;;;;;;;;;;;;;;10.77;100.00;100692.09;5042925;28;19932;-86
2022/06/01 09:26:52;;;;;;;;;;;;;;;10.75;100.00;100693.47;5034339;28;19936;-84
2022/06/01 09:29:27;;;;;;;;;;;;;;;10.68;100.00;100700.03;5067572;28;19987;-87
2022/06/01 09:32:01;;;;;;;;;;;;;;;10.75;100.00;100704.38;5036719;28;19940;-85
2022/06/01 09:34:35;;;;;;;;;;;;;;;10.66;100.00;100706.84;5037413;28;20510;-84
2022/06/01 09:37:10;;;;;;;;;;;;;;;10.70;100.00;100710.63;5040294;28;19940;-86
2022/06/01 09:39:48;;;;;;;;;;;;;;;10.72;100.00;100713.91;5039741;28;19933;-85
2022/06/01 09:42:20;;;;;;;;;;;;;;;10.64;100.00;100709.03;5037140;28;19939;-84
2022/06/01 09:44:49;;;;;;;;;;;;;;;10.61;100.00;100713.13;5041107;28;20591;-86
2022/06/01 09:47:39;;;;;;;;;;;;;;;10.50;100.00;100709.63;5034062;28;20420;-86
2022/06/01 09:50:21;;;;;;;;;;;;;;;10.47;100.00;100714.84;5038881;28;19932;-84
2022/06/01 09:52:58;;;;;;;;;;;;;;;10.53;100.00;100713.72;5053917;28;19933;-83
2022/06/01 09:55:29;;;;;;;;;;;;;;;10.55;100.00;100712.34;5037680;28;19928;-85
2022/06/01 09:58:05;;;;;;;;;;;;;;;10.62;100.00;100709.31;5039088;28;19932;-86
2022/06/01 10:06:30;;;;;;;;;;;;;;;10.67;100.00;100711.19;5039941;28;19932;-86
2022/06/01 10:09:01;;;;;;;;;;;;;;;10.61;100.00;100706.88;5034549;28;19933;-85
2022/06/01 10:11:36;;;;;;;;;;;;;;;10.64;100.00;100707.13;5038449;28;19939;-85
2022/06/01 10:14:15;;;;;;;;;;;;;;;10.74;100.00;100706.25;5036902;28;19940;-87
2022/06/01 10:17:03;;;;;;;;;;;;;;;10.93;100.00;100703.72;5053791;28;20452;-85
2022/06/01 10:19:34;;;;;;;;;;;;;;;11.11;100.00;100706.88;5037578;28;19932;-83
2022/06/01 10:22:09;;;;;;;;;;;;;;;11.34;100.00;100708.06;5037678;28;19928;-83
2022/06/01 10:24:41;;;;;;;;;;;;;;;11.58;100.00;100702.69;5035077;28;19939;-83
2022/06/01 10:27:16;;;;;;;;;;;;;;;11.84;100.00;100708.72;5048838;28;19932;-83
2022/06/01 10:29:52;;;;;;;;;;;;;;;11.94;100.00;100704.28;5033403;28;20584;-83
2022/06/01 10:32:30;;;;;;;;;;;;;;;11.84;100.00;100710.66;5037886;28;19939;-84
2022/06/01 10:35:10;;;;;;;;;;;;;;;12.00;100.00;100693.06;5035681;28;19940;-84
2022/06/01 10:37:50;;;;;;;;;;;;;;;12.52;100.00;100685.06;5042838;28;20376;-82
2022/06/01 10:40:28;;;;;;;;;;;;;;;12.57;100.00;100687.72;5036985;28;20303;-84
2022/06/01 10:43:18;;;;;;;;;;;;;;;12.88;100.00;100686.50;5034197;28;19933;-82
2022/06/01 10:45:53;;;;;;;;;;;;;;;13.03;100.00;100680.81;5032442;28;20711;-84
2022/06/01 10:48:24;;;;;;;;;;;;;;;13.05;100.00;100677.78;5033694;28;19932;-85
2022/06/01 10:51:00;;;;;;;;;;;;;;;13.06;100.00;100671.22;5039019;28;19939;-86
2022/06/01 10:53:34;;;;;;;;;;;;;;;13.19;100.00;100672.41;5038110;28;19933;-87
2022/06/01 10:56:07;;;;;;;;;;;;;;;13.39;100.00;100674.00;5064166;28;20292;-87
2022/06/01 10:58:41;;;;;;;;;;;;;;;13.51;100.00;100670.81;5043871;28;19932;-83
2022/06/01 11:01:13;;;;;;;;;;;;;;;13.18;100.00;100677.03;5035709;28;19940;-86
2022/06/01 11:04:07;;;;;;;;;;;;;;;12.64;100.00;100678.38;5039364;28;19933;-84
2022/06/01 11:06:51;;;;;;;;;;;;;;;12.48;100.00;100678.56;5043886;28;20396;-87
2022/06/01 11:09:29;;;;;;;;;;;;;;;12.72;100.00;100673.06;5046981;28;19947;-86
2022/06/01 11:12:06;;;;;;;;;;;;;;;13.26;100.00;100675.56;5039033;28;19936;-86
2022/06/01 11:14:51;;;;;;;;;;;;;;;13.31;100.00;100672.72;5037334;28;19939;-84
2022/06/01 11:17:26;;;;;;;;;;;;;;;13.51;100.00;100674.34;5033963;28;19964;-85
2022/06/01 11:20:12;;;;;;;;;;;;;;;13.73;100.00;100668.22;5026803;28;20011;-84
2022/06/01 11:23:01;;;;;;;;;;;;;;;13.96;100.00;100668.34;5037905;28;19964;-86
2022/06/01 11:25:33;;;;;;;;;;;;;;;13.65;100.00;100665.38;5034586;28;19940;-87
2022/06/01 11:28:14;;;;;;;;;;;;;;;13.43;100.00;100666.84;5059547;28;20764;-87
2022/06/01 11:30:55;;;;;;;;;;;;;;;13.30;100.00;100668.38;5053005;28;19932;-84
2022/06/01 11:33:32;;;;;;;;;;;;;;;13.77;100.00;100671.97;5031320;28;19959;-83
2022/06/01 11:36:14;;;;;;;;;;;;;;;13.74;100.00;100664.38;5048563;28;19933;-86
2022/06/01 11:38:50;;;;;;;;;;;;;;;14.04;100.00;100662.16;5034022;28;20769;-85
2022/06/01 11:41:25;;;;;;;;;;;;;;;14.67;100.00;100656.28;5032232;28;19932;-84
2022/06/01 11:44:00;;;;;;;;;;;;;;;15.13;100.00;100657.94;5033321;28;19937;-83
2022/06/01 11:46:40;;;;;;;;;;;;;;;14.61;100.00;100664.56;5039608;28;19933;-86
2022/06/01 11:49:12;;;;;;;;;;;;;;;15.05;100.00;100658.66;5068073;28;19933;-83
2022/06/01 11:51:46;;;;;;;;;;;;;;;15.16;100.00;100653.75;5038629;28;19940;-87
2022/06/01 11:54:26;;;;;;;;;;;;;;;15.51;100.00;100657.53;5035725;28;19943;-82
2022/06/01 11:56:55;;;;;;;;;;;;;;;15.41;100.00;100650.38;5040570;28;19940;-83
2022/06/01 11:59:29;;;;;;;;;;;;;;;15.49;100.00;100654.28;5039664;28;19933;-83
2022/06/01 12:02:05;;;;;;;;;;;;;;;15.75;100.00;100653.63;5031567;28;19940;-83
2022/06/01 12:04:50;;;;;;;;;;;;;;;15.55;100.00;100649.47;5034767;28;19941;-84
2022/06/01 12:07:22;;;;;;;;;;;;;;;14.98;100.00;100645.41;5036657;28;19933;-86
2022/06/01 12:10:00;;;;;;;;;;;;;;;14.85;100.00;100654.50;5039726;28;19996;-84
2022/06/01 12:12:44;;;;;;;;;;;;;;;15.07;100.00;100651.75;5058902;28;20265;-85
2022/06/01 12:15:17;;;;;;;;;;;;;;;14.77;100.00;100654.09;5049151;28;19943;-85
2022/06/01 12:18:00;;;;;;;;;;;;;;;14.77;100.00;100651.34;5041635;28;19939;-84
2022/06/01 12:20:46;;;;;;;;;;;;;;;14.82;100.00;100655.09;5035510;28;19932;-84
2022/06/01 12:29:32;;;;;;;;;;;;;;;14.71;100.00;100658.06;5048243;28;20490;-85
2022/06/01 12:32:10;;;;;;;;;;;;;;;15.02;100.00;100651.88;5035316;28;19933;-85
2022/06/01 12:34:46;;;;;;;4.82;4.43;;;;;;;15.29;100.00;100645.47;5050568;28;20673;-83
2022/06/01 12:37:21;;;;;;;3.00;2.72;;;;;;;15.53;100.00;100647.06;5060840;28;20044;-83
2022/06/01 12:39:59;;;;;;;2.55;2.35;;;;;;;15.98;100.00;100627.75;5056011;28;20060;-83
2022/06/01 12:42:31;;;;;;;2.53;2.33;;;;;;;15.98;100.00;100633.25;5034308;28;20055;-84
2022/06/01 12:45:05;;;;;;;2.63;2.20;;;;;;;15.95;100.00;100639.38;5036301;28;20170;-85
2022/06/01 12:47:49;;;;;;;2.67;2.10;;;;;;;16.31;100.00;100638.34;5028057;28;20066;-84
2022/06/01 12:50:26;;;;;;;2.13;1.80;;;;;;;16.25;100.00;100638.81;5061739;28;20090;-82
2022/06/01 12:53:12;;;;;;;4.35;1.98;;;;;;;16.03;100.00;100635.03;5041012;28;20787;-84
2022/06/01 12:55:41;;;;;;;2.63;1.85;;;;;;;16.30;100.00;100627.69;5060733;28;20049;-84
2022/06/01 12:58:15;;;;;;;4.18;2.15;;;;;;;16.44;100.00;100638.53;5054568;28;20064;-87
2022/06/01 13:00:52;;;;;;;5.07;2.40;;;;;;;15.99;100.00;100639.53;5035386;28;20052;-83
2022/06/01 13:03:29;;;;;;;3.67;2.08;;;;;;;16.39;100.00;100638.69;5035987;28;20056;-83
2022/06/01 13:06:10;;;;;;;2.58;1.92;;;;;;;16.99;100.00;100637.16;5030963;28;20057;-83
2022/06/01 13:08:43;;;;;;;2.85;2.17;;;;;;;17.11;100.00;100641.97;5036740;28;20047;-83
2022/06/01 13:11:25;;;;;;;2.83;2.20;;;;;;;16.40;100.00;100635.63;5049732;28;20052;-87
2022/06/01 13:13:59;;;;;;;3.22;2.28;;;;;;;15.75;100.00;100651.69;5035510;28;20060;-84
2022/06/01 13:16:38;;;;;;;3.35;2.30;;;;;;;15.42;100.00;100649.25;5032418;28;20056;-84
2022/06/01 13:19:18;;;;;;;3.78;2.20;;;;;;;15.09;100.00;100652.28;5032646;28;20060;-83
2022/06/01 13:21:57;;;;;;;3.08;2.10;;;;;;;14.87;100.00;100661.25;5032527;28;20044;-83
2022/06/01 13:24:35;;;;;;;4.38;2.15;;;;;;;14.79;100.00;100668.31;5036511;28;20051;-84
2022/06/01 13:27:09;;;;;;;2.05;1.50;;;;;;;14.24;100.00;100677.38;5033552;28;20496;-82
2022/06/01 13:29:47;;;;;;;1.83;1.38;;;;;;;14.00;100.00;100677.56;5038498;28;20064;-83
2022/06/01 13:32:18;;;;;;;1.90;1.40;;;;;;;13.78;100.00;100684.53;5056180;28;20055;-82
2022/06/01 13:34:54;;;;;;;1.40;1.07;;;;;;;13.58;100.00;100691.16;5035790;28;20332;-84